Airfield :
LOGIN :

Register | Disclaimer

   EN    FR    IT 

 










Legend :    VFR   Marginal VFR   IFR   Intensive IFR   Very Intensive IFR
Visi :
Ceiling :
>= 8 km
>= 3000ft
5 to 8 km
1000 to 3000 ft
1500m to 5 km
500 to 1000 ft
800 to 1500m
200 to 500 ft
< 800m
< 200 ft
Symbols :   Thunderstorms  Fog  Heavy snow  Heavy precipitations  Wind > 20 kt
SIGMETs :     Misc.  Thunderstorms  Icing  Turbulence  Mountain Waves  Volcanic Ashes







- Airport Elevation : 156 ft
- IATA code : LCC


LIBN - Lecce Galatine (military)

CURRENT METAR :
  • 182155Z 33009KT 9999 FEW030 13/12 Q1012 RMK BKN SCT060 VIS MIN 9999 WIND THR14 34009KT WIND THR32 33008KT BLU

EXPIRED METARs :
  • 182055Z 34010KT 9999 FEW030 13/12 Q1012 RMK BKN BKN060 VIS MIN 9999 WIND THR14 34009KT WIND THR32 34009KT BLU
  • 181955Z 34009KT 9999 FEW030 13/12 Q1012 RMK BKN SCT060 BKN100 VIS MIN 9999 WIND THR14 34009KT WIND THR32 34010KT BLU

Expired Forecast.
No reported NOTAMs for that airfield.
1 SIGMET reported for the Brindisi FIR (LIBB) :
 
Embedded thunderstorms
LIBB SIGMET 11 VALID 182000/182300 LIIB
LIBB BRINDISI FIR EMBD TS OBS WI N4010 E01902 - N3851 E01859 - N3901 E01814 - N3952 E01831 - N4010 E01902 TOP ABV FL390 STNR NC=



MET'MAP, your aeronautical weather chart ! - Copyright ORBIFLY December 2007 - Disclaimer

ORBIFLY MET'MAP TEAM :

Programming & Development : Alexandra Zaïnal
Concept & Development : Baudouin d'Aumeries
Co-Development & Prog : Marc-Olivier Méhu
Technical & hardware support : Manuel Goepfert

Contact : metmap@orbifly.com




SOURCES & CREDITS :

   NOAA